sensor_id;sensor_type;location;lat;lon;timestamp;P1;durP1;ratioP1;P2;durP2;ratioP2
78057;SDS011;67265;52.514;13.292;2023-04-24T00:00:44;6.88;;;3.45;;
78057;SDS011;67265;52.514;13.292;2023-04-24T00:03:11;5.05;;;2.97;;
78057;SDS011;67265;52.514;13.292;2023-04-24T00:05:39;4.75;;;3.38;;
78057;SDS011;67265;52.514;13.292;2023-04-24T00:08:06;4.10;;;3.00;;
78057;SDS011;67265;52.514;13.292;2023-04-24T00:10:33;4.10;;;3.20;;
78057;SDS011;67265;52.514;13.292;2023-04-24T00:12:59;4.63;;;2.85;;
78057;SDS011;67265;52.514;13.292;2023-04-24T00:15:26;4.78;;;3.33;;
78057;SDS011;67265;52.514;13.292;2023-04-24T00:17:52;7.38;;;2.95;;
78057;SDS011;67265;52.514;13.292;2023-04-24T00:20:19;5.20;;;3.47;;
78057;SDS011;67265;52.514;13.292;2023-04-24T00:22:46;5.97;;;3.22;;
78057;SDS011;67265;52.514;13.292;2023-04-24T00:25:13;5.75;;;3.47;;
78057;SDS011;67265;52.514;13.292;2023-04-24T00:27:39;4.78;;;3.10;;
78057;SDS011;67265;52.514;13.292;2023-04-24T00:30:06;5.90;;;3.67;;
78057;SDS011;67265;52.514;13.292;2023-04-24T00:32:33;5.25;;;3.50;;
78057;SDS011;67265;52.514;13.292;2023-04-24T00:34:59;6.88;;;3.22;;
78057;SDS011;67265;52.514;13.292;2023-04-24T00:37:26;7.18;;;3.78;;
78057;SDS011;67265;52.514;13.292;2023-04-24T00:39:52;5.13;;;2.95;;
78057;SDS011;67265;52.514;13.292;2023-04-24T00:42:19;7.05;;;3.50;;
78057;SDS011;67265;52.514;13.292;2023-04-24T00:44:46;6.13;;;3.50;;
78057;SDS011;67265;52.514;13.292;2023-04-24T00:47:13;6.40;;;3.20;;
78057;SDS011;67265;52.514;13.292;2023-04-24T00:49:40;5.07;;;3.30;;
78057;SDS011;67265;52.514;13.292;2023-04-24T00:52:07;5.60;;;3.45;;
78057;SDS011;67265;52.514;13.292;2023-04-24T00:54:35;4.78;;;3.22;;
78057;SDS011;67265;52.514;13.292;2023-04-24T00:57:05;5.38;;;3.30;;
78057;SDS011;67265;52.514;13.292;2023-04-24T00:59:31;5.00;;;3.20;;
78057;SDS011;67265;52.514;13.292;2023-04-24T01:01:58;5.50;;;3.42;;
78057;SDS011;67265;52.514;13.292;2023-04-24T01:04:25;4.80;;;2.97;;
78057;SDS011;67265;52.514;13.292;2023-04-24T01:06:52;6.97;;;3.95;;
78057;SDS011;67265;52.514;13.292;2023-04-24T01:09:19;5.18;;;3.30;;
78057;SDS011;67265;52.514;13.292;2023-04-24T01:11:46;5.95;;;3.65;;
78057;SDS011;67265;52.514;13.292;2023-04-24T01:14:13;4.53;;;3.05;;
78057;SDS011;67265;52.514;13.292;2023-04-24T01:16:40;5.47;;;3.33;;
78057;SDS011;67265;52.514;13.292;2023-04-24T01:19:07;5.13;;;3.35;;
78057;SDS011;67265;52.514;13.292;2023-04-24T01:21:34;5.65;;;3.58;;
78057;SDS011;67265;52.514;13.292;2023-04-24T01:24:03;5.55;;;3.75;;
78057;SDS011;67265;52.514;13.292;2023-04-24T01:26:31;5.40;;;3.08;;
78057;SDS011;67265;52.514;13.292;2023-04-24T01:28:58;5.75;;;3.35;;
78057;SDS011;67265;52.514;13.292;2023-04-24T01:31:24;6.30;;;3.67;;
78057;SDS011;67265;52.514;13.292;2023-04-24T01:33:51;5.75;;;3.72;;
78057;SDS011;67265;52.514;13.292;2023-04-24T01:36:17;5.88;;;3.45;;
78057;SDS011;67265;52.514;13.292;2023-04-24T01:38:44;7.75;;;4.15;;
78057;SDS011;67265;52.514;13.292;2023-04-24T01:41:10;5.70;;;3.40;;
78057;SDS011;67265;52.514;13.292;2023-04-24T01:43:37;6.45;;;3.58;;
78057;SDS011;67265;52.514;13.292;2023-04-24T01:46:04;5.90;;;3.65;;
78057;SDS011;67265;52.514;13.292;2023-04-24T01:48:30;5.68;;;3.60;;
78057;SDS011;67265;52.514;13.292;2023-04-24T01:50:57;6.53;;;3.78;;
78057;SDS011;67265;52.514;13.292;2023-04-24T01:53:24;5.88;;;3.60;;
78057;SDS011;67265;52.514;13.292;2023-04-24T01:55:50;5.60;;;4.22;;
78057;SDS011;67265;52.514;13.292;2023-04-24T01:58:17;5.20;;;3.97;;
78057;SDS011;67265;52.514;13.292;2023-04-24T02:00:43;6.03;;;4.13;;
78057;SDS011;67265;52.514;13.292;2023-04-24T02:03:10;5.22;;;3.25;;
78057;SDS011;67265;52.514;13.292;2023-04-24T02:05:37;8.13;;;3.95;;
78057;SDS011;67265;52.514;13.292;2023-04-24T02:08:04;7.90;;;3.83;;
78057;SDS011;67265;52.514;13.292;2023-04-24T02:10:30;6.43;;;3.85;;
78057;SDS011;67265;52.514;13.292;2023-04-24T02:12:57;7.63;;;3.97;;
78057;SDS011;67265;52.514;13.292;2023-04-24T02:15:25;5.43;;;3.58;;
78057;SDS011;67265;52.514;13.292;2023-04-24T02:17:52;6.00;;;3.53;;
78057;SDS011;67265;52.514;13.292;2023-04-24T02:20:18;7.50;;;3.90;;
78057;SDS011;67265;52.514;13.292;2023-04-24T02:22:45;8.25;;;4.47;;
78057;SDS011;67265;52.514;13.292;2023-04-24T02:25:11;7.20;;;4.18;;
78057;SDS011;67265;52.514;13.292;2023-04-24T02:27:38;6.82;;;4.45;;
78057;SDS011;67265;52.514;13.292;2023-04-24T02:30:05;5.47;;;4.05;;
78057;SDS011;67265;52.514;13.292;2023-04-24T02:32:32;7.60;;;4.28;;
78057;SDS011;67265;52.514;13.292;2023-04-24T02:34:58;6.00;;;3.47;;
78057;SDS011;67265;52.514;13.292;2023-04-24T02:37:25;5.93;;;3.90;;
78057;SDS011;67265;52.514;13.292;2023-04-24T02:39:52;6.22;;;4.07;;
78057;SDS011;67265;52.514;13.292;2023-04-24T02:42:18;8.27;;;4.35;;
78057;SDS011;67265;52.514;13.292;2023-04-24T02:44:45;7.20;;;3.67;;
78057;SDS011;67265;52.514;13.292;2023-04-24T02:47:11;6.65;;;4.28;;
78057;SDS011;67265;52.514;13.292;2023-04-24T02:49:38;6.32;;;3.90;;
78057;SDS011;67265;52.514;13.292;2023-04-24T02:52:04;6.63;;;3.67;;
78057;SDS011;67265;52.514;13.292;2023-04-24T02:54:31;4.70;;;3.55;;
78057;SDS011;67265;52.514;13.292;2023-04-24T02:56:57;9.27;;;3.90;;
78057;SDS011;67265;52.514;13.292;2023-04-24T02:59:24;7.25;;;4.05;;
78057;SDS011;67265;52.514;13.292;2023-04-24T03:01:51;7.93;;;4.72;;
78057;SDS011;67265;52.514;13.292;2023-04-24T03:04:17;5.45;;;3.72;;
78057;SDS011;67265;52.514;13.292;2023-04-24T03:06:46;6.30;;;4.45;;
78057;SDS011;67265;52.514;13.292;2023-04-24T03:09:13;5.63;;;3.63;;
78057;SDS011;67265;52.514;13.292;2023-04-24T03:11:39;6.13;;;4.07;;
78057;SDS011;67265;52.514;13.292;2023-04-24T03:14:06;6.68;;;4.15;;
78057;SDS011;67265;52.514;13.292;2023-04-24T03:16:33;6.35;;;3.92;;
78057;SDS011;67265;52.514;13.292;2023-04-24T03:18:59;6.55;;;4.13;;
78057;SDS011;67265;52.514;13.292;2023-04-24T03:21:26;6.68;;;3.72;;
78057;SDS011;67265;52.514;13.292;2023-04-24T03:23:53;5.28;;;3.47;;
78057;SDS011;67265;52.514;13.292;2023-04-24T03:26:20;6.65;;;3.80;;
78057;SDS011;67265;52.514;13.292;2023-04-24T03:28:46;6.88;;;3.72;;
78057;SDS011;67265;52.514;13.292;2023-04-24T03:31:12;5.50;;;3.75;;
78057;SDS011;67265;52.514;13.292;2023-04-24T03:33:39;5.45;;;3.58;;
78057;SDS011;67265;52.514;13.292;2023-04-24T03:36:06;6.07;;;3.55;;
78057;SDS011;67265;52.514;13.292;2023-04-24T03:38:32;5.45;;;3.47;;
78057;SDS011;67265;52.514;13.292;2023-04-24T03:40:59;6.15;;;4.20;;
78057;SDS011;67265;52.514;13.292;2023-04-24T03:43:25;5.97;;;4.05;;
78057;SDS011;67265;52.514;13.292;2023-04-24T03:45:53;7.35;;;4.32;;
78057;SDS011;67265;52.514;13.292;2023-04-24T03:48:20;5.35;;;3.53;;
78057;SDS011;67265;52.514;13.292;2023-04-24T03:50:46;7.50;;;3.85;;
78057;SDS011;67265;52.514;13.292;2023-04-24T03:53:13;6.32;;;3.58;;
78057;SDS011;67265;52.514;13.292;2023-04-24T03:55:39;6.18;;;3.88;;
78057;SDS011;67265;52.514;13.292;2023-04-24T03:58:06;7.28;;;4.05;;
78057;SDS011;67265;52.514;13.292;2023-04-24T04:00:32;6.25;;;3.85;;
78057;SDS011;67265;52.514;13.292;2023-04-24T04:02:59;6.28;;;3.97;;
78057;SDS011;67265;52.514;13.292;2023-04-24T04:05:26;6.10;;;3.97;;
78057;SDS011;67265;52.514;13.292;2023-04-24T04:07:53;6.57;;;3.92;;
78057;SDS011;67265;52.514;13.292;2023-04-24T04:10:19;6.70;;;3.80;;
78057;SDS011;67265;52.514;13.292;2023-04-24T04:12:46;6.05;;;4.07;;
78057;SDS011;67265;52.514;13.292;2023-04-24T04:15:12;8.07;;;4.22;;
78057;SDS011;67265;52.514;13.292;2023-04-24T04:17:39;5.57;;;3.75;;
78057;SDS011;67265;52.514;13.292;2023-04-24T04:20:06;5.80;;;3.60;;
78057;SDS011;67265;52.514;13.292;2023-04-24T04:22:36;6.93;;;3.65;;
78057;SDS011;67265;52.514;13.292;2023-04-24T04:25:03;8.55;;;4.18;;
78057;SDS011;67265;52.514;13.292;2023-04-24T04:27:30;5.82;;;3.83;;
78057;SDS011;67265;52.514;13.292;2023-04-24T04:29:58;6.60;;;3.90;;
78057;SDS011;67265;52.514;13.292;2023-04-24T04:32:27;6.13;;;4.38;;
78057;SDS011;67265;52.514;13.292;2023-04-24T04:34:54;6.38;;;3.97;;
78057;SDS011;67265;52.514;13.292;2023-04-24T04:37:20;6.15;;;3.50;;
78057;SDS011;67265;52.514;13.292;2023-04-24T04:39:47;5.47;;;3.28;;
78057;SDS011;67265;52.514;13.292;2023-04-24T04:42:13;5.53;;;3.78;;
78057;SDS011;67265;52.514;13.292;2023-04-24T04:44:39;6.93;;;3.92;;
78057;SDS011;67265;52.514;13.292;2023-04-24T04:47:06;6.25;;;4.20;;
78057;SDS011;67265;52.514;13.292;2023-04-24T04:49:34;6.40;;;4.00;;
78057;SDS011;67265;52.514;13.292;2023-04-24T04:52:02;5.68;;;3.53;;
78057;SDS011;67265;52.514;13.292;2023-04-24T04:54:28;6.78;;;3.63;;
78057;SDS011;67265;52.514;13.292;2023-04-24T04:56:55;6.00;;;3.25;;
78057;SDS011;67265;52.514;13.292;2023-04-24T04:59:23;5.20;;;3.60;;
78057;SDS011;67265;52.514;13.292;2023-04-24T05:01:50;5.07;;;3.80;;
78057;SDS011;67265;52.514;13.292;2023-04-24T05:04:16;6.13;;;3.60;;
78057;SDS011;67265;52.514;13.292;2023-04-24T05:06:43;5.20;;;3.42;;
78057;SDS011;67265;52.514;13.292;2023-04-24T05:09:10;4.57;;;3.13;;
78057;SDS011;67265;52.514;13.292;2023-04-24T05:11:37;5.30;;;3.58;;
78057;SDS011;67265;52.514;13.292;2023-04-24T05:14:03;5.43;;;3.50;;
78057;SDS011;67265;52.514;13.292;2023-04-24T05:16:30;5.72;;;3.25;;
78057;SDS011;67265;52.514;13.292;2023-04-24T05:18:57;5.63;;;3.65;;
78057;SDS011;67265;52.514;13.292;2023-04-24T05:21:23;5.00;;;3.13;;
78057;SDS011;67265;52.514;13.292;2023-04-24T05:23:50;5.97;;;3.28;;
78057;SDS011;67265;52.514;13.292;2023-04-24T05:26:16;4.57;;;2.85;;
78057;SDS011;67265;52.514;13.292;2023-04-24T05:28:43;6.25;;;3.55;;
78057;SDS011;67265;52.514;13.292;2023-04-24T05:31:10;7.53;;;3.25;;
78057;SDS011;67265;52.514;13.292;2023-04-24T05:33:38;4.13;;;2.95;;
78057;SDS011;67265;52.514;13.292;2023-04-24T05:36:05;4.78;;;3.05;;
78057;SDS011;67265;52.514;13.292;2023-04-24T05:38:32;5.72;;;2.85;;
78057;SDS011;67265;52.514;13.292;2023-04-24T05:40:59;4.60;;;2.72;;
78057;SDS011;67265;52.514;13.292;2023-04-24T05:43:25;4.30;;;2.70;;
78057;SDS011;67265;52.514;13.292;2023-04-24T05:45:52;5.28;;;2.78;;
78057;SDS011;67265;52.514;13.292;2023-04-24T05:48:19;3.53;;;2.03;;
78057;SDS011;67265;52.514;13.292;2023-04-24T05:50:46;4.38;;;2.00;;
78057;SDS011;67265;52.514;13.292;2023-04-24T05:53:14;5.25;;;1.85;;
78057;SDS011;67265;52.514;13.292;2023-04-24T05:55:40;3.70;;;1.60;;
78057;SDS011;67265;52.514;13.292;2023-04-24T05:58:07;2.92;;;1.75;;
78057;SDS011;67265;52.514;13.292;2023-04-24T06:00:34;3.13;;;1.85;;
78057;SDS011;67265;52.514;13.292;2023-04-24T06:03:01;2.80;;;2.00;;
78057;SDS011;67265;52.514;13.292;2023-04-24T06:05:30;2.45;;;1.58;;
78057;SDS011;67265;52.514;13.292;2023-04-24T06:07:57;3.50;;;1.67;;
78057;SDS011;67265;52.514;13.292;2023-04-24T06:10:23;2.28;;;1.38;;
78057;SDS011;67265;52.514;13.292;2023-04-24T06:12:50;2.33;;;1.23;;
78057;SDS011;67265;52.514;13.292;2023-04-24T06:15:16;2.35;;;1.60;;
78057;SDS011;67265;52.514;13.292;2023-04-24T06:17:43;2.05;;;1.20;;
78057;SDS011;67265;52.514;13.292;2023-04-24T06:20:09;2.20;;;1.10;;
78057;SDS011;67265;52.514;13.292;2023-04-24T06:22:37;1.80;;;1.02;;
78057;SDS011;67265;52.514;13.292;2023-04-24T06:25:03;4.15;;;1.27;;
78057;SDS011;67265;52.514;13.292;2023-04-24T06:27:30;1.80;;;1.10;;
78057;SDS011;67265;52.514;13.292;2023-04-24T06:29:57;4.70;;;1.15;;
78057;SDS011;67265;52.514;13.292;2023-04-24T06:32:23;2.10;;;1.05;;
78057;SDS011;67265;52.514;13.292;2023-04-24T06:34:51;2.20;;;0.90;;
78057;SDS011;67265;52.514;13.292;2023-04-24T06:37:19;1.85;;;0.90;;
78057;SDS011;67265;52.514;13.292;2023-04-24T06:39:46;1.20;;;0.70;;
78057;SDS011;67265;52.514;13.292;2023-04-24T06:42:13;1.25;;;0.70;;
78057;SDS011;67265;52.514;13.292;2023-04-24T06:44:39;1.73;;;0.93;;
78057;SDS011;67265;52.514;13.292;2023-04-24T06:47:09;2.88;;;0.80;;
78057;SDS011;67265;52.514;13.292;2023-04-24T06:49:37;1.15;;;0.60;;
78057;SDS011;67265;52.514;13.292;2023-04-24T06:52:03;1.08;;;0.65;;
78057;SDS011;67265;52.514;13.292;2023-04-24T06:54:30;0.80;;;0.57;;
78057;SDS011;67265;52.514;13.292;2023-04-24T06:56:57;1.23;;;0.60;;
78057;SDS011;67265;52.514;13.292;2023-04-24T06:59:26;1.02;;;0.45;;
78057;SDS011;67265;52.514;13.292;2023-04-24T07:01:54;2.10;;;0.60;;
78057;SDS011;67265;52.514;13.292;2023-04-24T07:04:21;1.17;;;0.40;;
78057;SDS011;67265;52.514;13.292;2023-04-24T07:06:48;5.95;;;0.57;;
78057;SDS011;67265;52.514;13.292;2023-04-24T07:09:15;2.03;;;0.73;;
78057;SDS011;67265;52.514;13.292;2023-04-24T07:11:45;1.00;;;0.57;;
78057;SDS011;67265;52.514;13.292;2023-04-24T07:14:12;0.68;;;0.43;;
78057;SDS011;67265;52.514;13.292;2023-04-24T07:16:38;1.40;;;0.40;;
78057;SDS011;67265;52.514;13.292;2023-04-24T07:19:05;3.10;;;1.02;;
78057;SDS011;67265;52.514;13.292;2023-04-24T07:21:32;0.60;;;0.15;;
78057;SDS011;67265;52.514;13.292;2023-04-24T07:23:58;1.73;;;0.30;;
78057;SDS011;67265;52.514;13.292;2023-04-24T07:26:26;1.88;;;0.38;;
78057;SDS011;67265;52.514;13.292;2023-04-24T07:28:53;2.85;;;0.40;;
78057;SDS011;67265;52.514;13.292;2023-04-24T07:31:21;1.25;;;0.50;;
78057;SDS011;67265;52.514;13.292;2023-04-24T07:33:48;0.80;;;0.10;;
78057;SDS011;67265;52.514;13.292;2023-04-24T07:36:15;0.45;;;0.20;;
78057;SDS011;67265;52.514;13.292;2023-04-24T07:38:45;1.33;;;0.20;;
78057;SDS011;67265;52.514;13.292;2023-04-24T07:41:12;1.23;;;0.13;;
78057;SDS011;67265;52.514;13.292;2023-04-24T07:43:39;0.70;;;0.32;;
78057;SDS011;67265;52.514;13.292;2023-04-24T07:46:06;0.40;;;0.10;;
78057;SDS011;67265;52.514;13.292;2023-04-24T07:48:35;0.88;;;0.30;;
78057;SDS011;67265;52.514;13.292;2023-04-24T07:51:02;0.70;;;0.20;;
78057;SDS011;67265;52.514;13.292;2023-04-24T07:53:29;0.90;;;0.10;;
78057;SDS011;67265;52.514;13.292;2023-04-24T07:55:55;0.60;;;0.30;;
78057;SDS011;67265;52.514;13.292;2023-04-24T07:58:22;0.57;;;0.15;;
78057;SDS011;67265;52.514;13.292;2023-04-24T08:00:48;0.55;;;0.17;;
78057;SDS011;67265;52.514;13.292;2023-04-24T08:03:15;0.60;;;0.20;;
78057;SDS011;67265;52.514;13.292;2023-04-24T08:05:45;2.92;;;0.20;;
78057;SDS011;67265;52.514;13.292;2023-04-24T08:08:12;0.80;;;0.20;;
78057;SDS011;67265;52.514;13.292;2023-04-24T08:10:38;1.05;;;0.20;;
78057;SDS011;67265;52.514;13.292;2023-04-24T08:13:05;1.77;;;0.25;;
78057;SDS011;67265;52.514;13.292;2023-04-24T08:15:32;0.25;;;0.10;;
78057;SDS011;67265;52.514;13.292;2023-04-24T08:17:58;1.13;;;0.10;;
78057;SDS011;67265;52.514;13.292;2023-04-24T08:20:25;0.45;;;0.10;;
78057;SDS011;67265;52.514;13.292;2023-04-24T08:22:51;0.68;;;0.20;;
78057;SDS011;67265;52.514;13.292;2023-04-24T08:25:18;0.77;;;0.20;;
78057;SDS011;67265;52.514;13.292;2023-04-24T08:27:45;0.70;;;0.20;;
78057;SDS011;67265;52.514;13.292;2023-04-24T08:30:11;0.60;;;0.20;;
78057;SDS011;67265;52.514;13.292;2023-04-24T08:32:38;1.77;;;0.30;;
78057;SDS011;67265;52.514;13.292;2023-04-24T08:35:05;0.50;;;0.20;;
78057;SDS011;67265;52.514;13.292;2023-04-24T08:37:31;0.40;;;0.10;;
78057;SDS011;67265;52.514;13.292;2023-04-24T08:39:58;0.55;;;0.20;;
78057;SDS011;67265;52.514;13.292;2023-04-24T08:42:25;0.63;;;0.13;;
78057;SDS011;67265;52.514;13.292;2023-04-24T08:44:54;0.65;;;0.10;;
78057;SDS011;67265;52.514;13.292;2023-04-24T08:47:21;0.40;;;0.20;;
78057;SDS011;67265;52.514;13.292;2023-04-24T08:49:48;1.15;;;0.10;;
78057;SDS011;67265;52.514;13.292;2023-04-24T08:52:16;0.82;;;0.22;;
78057;SDS011;67265;52.514;13.292;2023-04-24T08:54:43;0.90;;;0.20;;
78057;SDS011;67265;52.514;13.292;2023-04-24T08:57:12;1.50;;;0.40;;
78057;SDS011;67265;52.514;13.292;2023-04-24T08:59:41;0.30;;;0.10;;
78057;SDS011;67265;52.514;13.292;2023-04-24T09:02:10;0.40;;;0.13;;
78057;SDS011;67265;52.514;13.292;2023-04-24T09:04:37;1.55;;;0.30;;
78057;SDS011;67265;52.514;13.292;2023-04-24T09:07:05;0.63;;;0.13;;
78057;SDS011;67265;52.514;13.292;2023-04-24T09:09:32;0.75;;;0.30;;
78057;SDS011;67265;52.514;13.292;2023-04-24T09:11:59;0.30;;;0.03;;
78057;SDS011;67265;52.514;13.292;2023-04-24T09:14:26;0.63;;;0.40;;
78057;SDS011;67265;52.514;13.292;2023-04-24T09:16:54;1.63;;;0.20;;
78057;SDS011;67265;52.514;13.292;2023-04-24T09:19:20;0.47;;;0.22;;
78057;SDS011;67265;52.514;13.292;2023-04-24T09:21:48;1.08;;;0.43;;
78057;SDS011;67265;52.514;13.292;2023-04-24T09:24:16;0.60;;;0.30;;
78057;SDS011;67265;52.514;13.292;2023-04-24T09:26:44;1.15;;;0.32;;
78057;SDS011;67265;52.514;13.292;2023-04-24T09:29:17;1.10;;;0.63;;
78057;SDS011;67265;52.514;13.292;2023-04-24T09:31:45;0.43;;;0.13;;
78057;SDS011;67265;52.514;13.292;2023-04-24T09:34:12;0.65;;;0.10;;
78057;SDS011;67265;52.514;13.292;2023-04-24T09:36:40;0.40;;;0.10;;
78057;SDS011;67265;52.514;13.292;2023-04-24T09:39:09;0.52;;;0.30;;
78057;SDS011;67265;52.514;13.292;2023-04-24T09:44:15;0.80;;;0.40;;
78057;SDS011;67265;52.514;13.292;2023-04-24T09:46:46;0.70;;;0.20;;
78057;SDS011;67265;52.514;13.292;2023-04-24T09:49:23;0.35;;;0.10;;
78057;SDS011;67265;52.514;13.292;2023-04-24T09:51:51;0.38;;;0.13;;
78057;SDS011;67265;52.514;13.292;2023-04-24T09:54:18;1.10;;;0.25;;
78057;SDS011;67265;52.514;13.292;2023-04-24T09:56:49;1.60;;;0.17;;
78057;SDS011;67265;52.514;13.292;2023-04-24T09:59:17;0.85;;;0.30;;
78057;SDS011;67265;52.514;13.292;2023-04-24T10:01:44;2.85;;;0.63;;
78057;SDS011;67265;52.514;13.292;2023-04-24T10:04:18;1.95;;;0.50;;
78057;SDS011;67265;52.514;13.292;2023-04-24T10:06:47;1.55;;;0.20;;
78057;SDS011;67265;52.514;13.292;2023-04-24T10:09:18;1.17;;;0.10;;
78057;SDS011;67265;52.514;13.292;2023-04-24T10:11:46;2.25;;;0.30;;
78057;SDS011;67265;52.514;13.292;2023-04-24T10:14:15;1.23;;;0.30;;
78057;SDS011;67265;52.514;13.292;2023-04-24T10:16:43;0.55;;;0.13;;
78057;SDS011;67265;52.514;13.292;2023-04-24T10:19:10;0.65;;;0.30;;
78057;SDS011;67265;52.514;13.292;2023-04-24T10:21:40;0.68;;;0.10;;
78057;SDS011;67265;52.514;13.292;2023-04-24T10:24:16;1.10;;;0.20;;
78057;SDS011;67265;52.514;13.292;2023-04-24T10:26:44;2.47;;;0.20;;
78057;SDS011;67265;52.514;13.292;2023-04-24T10:29:11;0.73;;;0.20;;
78057;SDS011;67265;52.514;13.292;2023-04-24T10:31:39;1.83;;;0.40;;
78057;SDS011;67265;52.514;13.292;2023-04-24T10:34:06;1.08;;;0.10;;
78057;SDS011;67265;52.514;13.292;2023-04-24T10:36:33;1.50;;;0.30;;
78057;SDS011;67265;52.514;13.292;2023-04-24T10:39:02;2.00;;;0.43;;
78057;SDS011;67265;52.514;13.292;2023-04-24T10:41:30;0.60;;;0.22;;
78057;SDS011;67265;52.514;13.292;2023-04-24T10:46:36;1.48;;;0.20;;
78057;SDS011;67265;52.514;13.292;2023-04-24T10:49:04;1.60;;;0.20;;
78057;SDS011;67265;52.514;13.292;2023-04-24T10:51:45;1.02;;;0.22;;
78057;SDS011;67265;52.514;13.292;2023-04-24T10:54:23;0.70;;;0.30;;
78057;SDS011;67265;52.514;13.292;2023-04-24T10:56:50;2.22;;;0.28;;
78057;SDS011;67265;52.514;13.292;2023-04-24T10:59:24;0.98;;;0.40;;
78057;SDS011;67265;52.514;13.292;2023-04-24T11:01:54;0.60;;;0.13;;
78057;SDS011;67265;52.514;13.292;2023-04-24T11:04:31;0.40;;;0.13;;
78057;SDS011;67265;52.514;13.292;2023-04-24T11:06:58;2.63;;;0.43;;
78057;SDS011;67265;52.514;13.292;2023-04-24T11:09:28;1.08;;;0.20;;
78057;SDS011;67265;52.514;13.292;2023-04-24T11:12:03;0.30;;;0.10;;
78057;SDS011;67265;52.514;13.292;2023-04-24T11:20:07;0.90;;;0.28;;
78057;SDS011;67265;52.514;13.292;2023-04-24T11:22:53;2.33;;;0.20;;
78057;SDS011;67265;52.514;13.292;2023-04-24T11:25:24;0.70;;;0.28;;
78057;SDS011;67265;52.514;13.292;2023-04-24T11:27:51;0.50;;;0.22;;
78057;SDS011;67265;52.514;13.292;2023-04-24T11:30:29;2.47;;;0.47;;
78057;SDS011;67265;52.514;13.292;2023-04-24T11:33:01;1.52;;;0.45;;
78057;SDS011;67265;52.514;13.292;2023-04-24T11:35:29;1.83;;;0.30;;
78057;SDS011;67265;52.514;13.292;2023-04-24T11:37:56;1.58;;;0.50;;
78057;SDS011;67265;52.514;13.292;2023-04-24T11:40:26;1.90;;;0.70;;
78057;SDS011;67265;52.514;13.292;2023-04-24T11:42:53;2.63;;;0.40;;
78057;SDS011;67265;52.514;13.292;2023-04-24T11:45:23;1.85;;;0.55;;
78057;SDS011;67265;52.514;13.292;2023-04-24T11:47:52;2.47;;;0.60;;
78057;SDS011;67265;52.514;13.292;2023-04-24T11:50:21;1.33;;;0.40;;
78057;SDS011;67265;52.514;13.292;2023-04-24T11:52:49;2.08;;;0.65;;
78057;SDS011;67265;52.514;13.292;2023-04-24T11:57:46;2.70;;;0.80;;
78057;SDS011;67265;52.514;13.292;2023-04-24T12:00:18;0.65;;;0.40;;
78057;SDS011;67265;52.514;13.292;2023-04-24T12:02:46;1.10;;;0.40;;
78057;SDS011;67265;52.514;13.292;2023-04-24T12:05:24;1.23;;;0.70;;
78057;SDS011;67265;52.514;13.292;2023-04-24T12:07:54;0.73;;;0.40;;
78057;SDS011;67265;52.514;13.292;2023-04-24T12:10:21;1.40;;;0.40;;
78057;SDS011;67265;52.514;13.292;2023-04-24T12:12:49;2.53;;;0.30;;
78057;SDS011;67265;52.514;13.292;2023-04-24T12:15:17;1.23;;;0.38;;
78057;SDS011;67265;52.514;13.292;2023-04-24T12:17:45;0.80;;;0.22;;
78057;SDS011;67265;52.514;13.292;2023-04-24T12:20:12;1.33;;;0.30;;
78057;SDS011;67265;52.514;13.292;2023-04-24T12:25:11;1.88;;;0.40;;
78057;SDS011;67265;52.514;13.292;2023-04-24T12:27:38;1.38;;;0.28;;
78057;SDS011;67265;52.514;13.292;2023-04-24T12:30:05;0.57;;;0.20;;
78057;SDS011;67265;52.514;13.292;2023-04-24T12:32:40;1.15;;;0.20;;
78057;SDS011;67265;52.514;13.292;2023-04-24T12:35:11;0.52;;;0.22;;
78057;SDS011;67265;52.514;13.292;2023-04-24T12:37:37;2.50;;;0.22;;
78057;SDS011;67265;52.514;13.292;2023-04-24T12:40:06;1.08;;;0.20;;
78057;SDS011;67265;52.514;13.292;2023-04-24T12:42:35;0.30;;;0.15;;
78057;SDS011;67265;52.514;13.292;2023-04-24T12:45:03;0.65;;;0.40;;
78057;SDS011;67265;52.514;13.292;2023-04-24T12:47:31;0.73;;;0.20;;
78057;SDS011;67265;52.514;13.292;2023-04-24T12:49:59;1.48;;;0.35;;
78057;SDS011;67265;52.514;13.292;2023-04-24T12:52:26;0.40;;;0.17;;
78057;SDS011;67265;52.514;13.292;2023-04-24T12:54:55;0.65;;;0.20;;
78057;SDS011;67265;52.514;13.292;2023-04-24T12:57:22;1.77;;;0.35;;
78057;SDS011;67265;52.514;13.292;2023-04-24T12:59:50;1.38;;;0.40;;
78057;SDS011;67265;52.514;13.292;2023-04-24T13:02:16;0.77;;;0.22;;
78057;SDS011;67265;52.514;13.292;2023-04-24T13:04:44;0.30;;;0.10;;
78057;SDS011;67265;52.514;13.292;2023-04-24T13:07:12;0.60;;;0.17;;
78057;SDS011;67265;52.514;13.292;2023-04-24T13:09:40;1.02;;;0.22;;
78057;SDS011;67265;52.514;13.292;2023-04-24T13:12:08;2.47;;;0.40;;
78057;SDS011;67265;52.514;13.292;2023-04-24T13:14:35;3.92;;;0.32;;
78057;SDS011;67265;52.514;13.292;2023-04-24T13:17:02;0.60;;;0.20;;
78057;SDS011;67265;52.514;13.292;2023-04-24T13:19:29;1.75;;;0.13;;
78057;SDS011;67265;52.514;13.292;2023-04-24T13:21:56;1.77;;;0.30;;
78057;SDS011;67265;52.514;13.292;2023-04-24T13:24:23;0.70;;;0.35;;
78057;SDS011;67265;52.514;13.292;2023-04-24T13:26:53;0.90;;;0.30;;
78057;SDS011;67265;52.514;13.292;2023-04-24T13:29:20;1.65;;;0.30;;
78057;SDS011;67265;52.514;13.292;2023-04-24T13:31:46;1.70;;;0.32;;
78057;SDS011;67265;52.514;13.292;2023-04-24T13:34:13;1.52;;;0.40;;
78057;SDS011;67265;52.514;13.292;2023-04-24T13:36:39;0.93;;;0.40;;
78057;SDS011;67265;52.514;13.292;2023-04-24T13:39:06;0.57;;;0.30;;
78057;SDS011;67265;52.514;13.292;2023-04-24T13:41:33;3.50;;;0.30;;
78057;SDS011;67265;52.514;13.292;2023-04-24T13:44:00;1.48;;;0.20;;
78057;SDS011;67265;52.514;13.292;2023-04-24T13:46:27;0.30;;;0.20;;
78057;SDS011;67265;52.514;13.292;2023-04-24T13:48:54;0.45;;;0.20;;
78057;SDS011;67265;52.514;13.292;2023-04-24T13:51:20;1.30;;;0.22;;
78057;SDS011;67265;52.514;13.292;2023-04-24T13:53:47;0.40;;;0.30;;
78057;SDS011;67265;52.514;13.292;2023-04-24T13:56:13;0.77;;;0.35;;
78057;SDS011;67265;52.514;13.292;2023-04-24T13:58:40;1.92;;;0.32;;
78057;SDS011;67265;52.514;13.292;2023-04-24T14:01:06;0.40;;;0.20;;
78057;SDS011;67265;52.514;13.292;2023-04-24T14:03:33;2.45;;;0.30;;
78057;SDS011;67265;52.514;13.292;2023-04-24T14:06:00;1.15;;;0.30;;
78057;SDS011;67265;52.514;13.292;2023-04-24T14:08:26;0.50;;;0.20;;
78057;SDS011;67265;52.514;13.292;2023-04-24T14:10:53;0.82;;;0.20;;
78057;SDS011;67265;52.514;13.292;2023-04-24T14:13:19;1.45;;;0.40;;
78057;SDS011;67265;52.514;13.292;2023-04-24T14:15:46;0.73;;;0.28;;
78057;SDS011;67265;52.514;13.292;2023-04-24T14:18:13;0.95;;;0.40;;
78057;SDS011;67265;52.514;13.292;2023-04-24T14:20:39;0.65;;;0.30;;
78057;SDS011;67265;52.514;13.292;2023-04-24T14:23:06;0.93;;;0.32;;
78057;SDS011;67265;52.514;13.292;2023-04-24T14:25:32;1.05;;;0.10;;
78057;SDS011;67265;52.514;13.292;2023-04-24T14:27:59;1.05;;;0.40;;
78057;SDS011;67265;52.514;13.292;2023-04-24T14:30:25;0.52;;;0.22;;
78057;SDS011;67265;52.514;13.292;2023-04-24T14:32:52;0.68;;;0.30;;
78057;SDS011;67265;52.514;13.292;2023-04-24T14:35:18;0.77;;;0.30;;
78057;SDS011;67265;52.514;13.292;2023-04-24T14:37:45;1.45;;;0.20;;
78057;SDS011;67265;52.514;13.292;2023-04-24T14:40:11;0.90;;;0.40;;
78057;SDS011;67265;52.514;13.292;2023-04-24T14:42:58;1.48;;;0.13;;
78057;SDS011;67265;52.514;13.292;2023-04-24T14:45:25;1.08;;;0.20;;
78057;SDS011;67265;52.514;13.292;2023-04-24T14:47:52;0.70;;;0.30;;
78057;SDS011;67265;52.514;13.292;2023-04-24T14:50:19;0.65;;;0.30;;